sensor_id;sensor_type;location;lat;lon;timestamp;P1;durP1;ratioP1;P2;durP2;ratioP2
85040;SDS011;75367;52.010;4.358;2024-03-17T00:00:19;6.88;;;3.35;;
85040;SDS011;75367;52.010;4.358;2024-03-17T00:02:45;5.50;;;3.20;;
85040;SDS011;75367;52.010;4.358;2024-03-17T00:05:11;8.75;;;4.35;;
85040;SDS011;75367;52.010;4.358;2024-03-17T00:07:38;6.50;;;3.97;;
85040;SDS011;75367;52.010;4.358;2024-03-17T00:10:03;8.18;;;3.75;;
85040;SDS011;75367;52.010;4.358;2024-03-17T00:12:29;9.27;;;4.22;;
85040;SDS011;75367;52.010;4.358;2024-03-17T00:14:54;9.23;;;4.65;;
85040;SDS011;75367;52.010;4.358;2024-03-17T00:17:19;7.25;;;3.33;;
85040;SDS011;75367;52.010;4.358;2024-03-17T00:19:46;7.28;;;3.10;;
85040;SDS011;75367;52.010;4.358;2024-03-17T00:22:11;5.65;;;3.60;;
85040;SDS011;75367;52.010;4.358;2024-03-17T00:24:39;8.10;;;3.80;;
85040;SDS011;75367;52.010;4.358;2024-03-17T00:27:05;6.05;;;3.35;;
85040;SDS011;75367;52.010;4.358;2024-03-17T00:29:30;8.52;;;3.17;;
85040;SDS011;75367;52.010;4.358;2024-03-17T00:31:56;4.35;;;2.58;;
85040;SDS011;75367;52.010;4.358;2024-03-17T00:34:22;6.75;;;3.85;;
85040;SDS011;75367;52.010;4.358;2024-03-17T00:36:47;5.40;;;2.92;;
85040;SDS011;75367;52.010;4.358;2024-03-17T00:39:12;9.02;;;4.00;;
85040;SDS011;75367;52.010;4.358;2024-03-17T00:41:39;7.40;;;2.83;;
85040;SDS011;75367;52.010;4.358;2024-03-17T00:44:04;4.45;;;2.45;;
85040;SDS011;75367;52.010;4.358;2024-03-17T00:46:31;7.80;;;3.50;;
85040;SDS011;75367;52.010;4.358;2024-03-17T00:48:58;5.20;;;2.88;;
85040;SDS011;75367;52.010;4.358;2024-03-17T00:51:25;6.47;;;2.90;;
85040;SDS011;75367;52.010;4.358;2024-03-17T00:53:50;6.20;;;3.13;;
85040;SDS011;75367;52.010;4.358;2024-03-17T00:56:15;8.77;;;4.45;;
85040;SDS011;75367;52.010;4.358;2024-03-17T00:58:41;6.65;;;3.50;;
85040;SDS011;75367;52.010;4.358;2024-03-17T01:01:06;4.78;;;2.88;;
85040;SDS011;75367;52.010;4.358;2024-03-17T01:03:32;4.95;;;2.47;;
85040;SDS011;75367;52.010;4.358;2024-03-17T01:05:57;5.63;;;2.38;;
85040;SDS011;75367;52.010;4.358;2024-03-17T01:08:22;4.75;;;2.42;;
85040;SDS011;75367;52.010;4.358;2024-03-17T01:10:48;8.67;;;2.87;;
85040;SDS011;75367;52.010;4.358;2024-03-17T01:13:16;4.90;;;2.97;;
85040;SDS011;75367;52.010;4.358;2024-03-17T01:15:42;7.00;;;2.97;;
85040;SDS011;75367;52.010;4.358;2024-03-17T01:18:08;5.65;;;3.25;;
85040;SDS011;75367;52.010;4.358;2024-03-17T01:20:36;6.70;;;3.30;;
85040;SDS011;75367;52.010;4.358;2024-03-17T01:23:02;3.97;;;3.17;;
85040;SDS011;75367;52.010;4.358;2024-03-17T01:25:28;7.57;;;3.45;;
85040;SDS011;75367;52.010;4.358;2024-03-17T01:27:54;6.35;;;2.90;;
85040;SDS011;75367;52.010;4.358;2024-03-17T01:30:20;6.18;;;3.15;;
85040;SDS011;75367;52.010;4.358;2024-03-17T01:32:45;7.35;;;3.42;;
85040;SDS011;75367;52.010;4.358;2024-03-17T01:35:11;4.80;;;3.00;;
85040;SDS011;75367;52.010;4.358;2024-03-17T01:37:37;6.10;;;3.17;;
85040;SDS011;75367;52.010;4.358;2024-03-17T01:40:03;7.70;;;3.75;;
85040;SDS011;75367;52.010;4.358;2024-03-17T01:42:35;5.70;;;3.75;;
85040;SDS011;75367;52.010;4.358;2024-03-17T01:45:03;6.15;;;3.28;;
85040;SDS011;75367;52.010;4.358;2024-03-17T01:47:45;8.90;;;3.63;;
85040;SDS011;75367;52.010;4.358;2024-03-17T01:50:11;7.88;;;3.55;;
85040;SDS011;75367;52.010;4.358;2024-03-17T01:52:38;6.10;;;3.53;;
85040;SDS011;75367;52.010;4.358;2024-03-17T01:55:04;6.38;;;3.75;;
85040;SDS011;75367;52.010;4.358;2024-03-17T01:57:29;7.68;;;3.83;;
85040;SDS011;75367;52.010;4.358;2024-03-17T01:59:55;4.68;;;3.78;;
85040;SDS011;75367;52.010;4.358;2024-03-17T02:02:21;7.45;;;4.03;;
85040;SDS011;75367;52.010;4.358;2024-03-17T02:04:46;6.35;;;4.18;;
85040;SDS011;75367;52.010;4.358;2024-03-17T02:07:12;5.32;;;3.75;;
85040;SDS011;75367;52.010;4.358;2024-03-17T02:09:40;6.22;;;3.97;;
85040;SDS011;75367;52.010;4.358;2024-03-17T02:12:05;6.93;;;3.83;;
85040;SDS011;75367;52.010;4.358;2024-03-17T02:14:31;4.43;;;3.28;;
85040;SDS011;75367;52.010;4.358;2024-03-17T02:16:56;5.53;;;3.85;;
85040;SDS011;75367;52.010;4.358;2024-03-17T02:19:21;6.75;;;4.00;;
85040;SDS011;75367;52.010;4.358;2024-03-17T02:21:46;9.47;;;4.83;;
85040;SDS011;75367;52.010;4.358;2024-03-17T02:24:12;8.93;;;3.70;;
85040;SDS011;75367;52.010;4.358;2024-03-17T02:26:37;8.23;;;3.67;;
85040;SDS011;75367;52.010;4.358;2024-03-17T02:29:03;7.00;;;3.90;;
85040;SDS011;75367;52.010;4.358;2024-03-17T02:31:29;7.30;;;3.80;;
85040;SDS011;75367;52.010;4.358;2024-03-17T02:33:54;7.28;;;4.05;;
85040;SDS011;75367;52.010;4.358;2024-03-17T02:36:20;5.60;;;3.80;;
85040;SDS011;75367;52.010;4.358;2024-03-17T02:38:45;6.00;;;3.65;;
85040;SDS011;75367;52.010;4.358;2024-03-17T02:41:29;6.28;;;3.97;;
85040;SDS011;75367;52.010;4.358;2024-03-17T02:43:55;7.20;;;3.78;;
85040;SDS011;75367;52.010;4.358;2024-03-17T02:46:20;4.97;;;4.15;;
85040;SDS011;75367;52.010;4.358;2024-03-17T02:48:47;5.70;;;4.07;;
85040;SDS011;75367;52.010;4.358;2024-03-17T02:51:14;7.70;;;4.03;;
85040;SDS011;75367;52.010;4.358;2024-03-17T02:53:44;5.75;;;4.35;;
85040;SDS011;75367;52.010;4.358;2024-03-17T02:56:10;5.07;;;3.70;;
85040;SDS011;75367;52.010;4.358;2024-03-17T02:58:36;6.15;;;3.58;;
85040;SDS011;75367;52.010;4.358;2024-03-17T03:01:03;6.70;;;3.97;;
85040;SDS011;75367;52.010;4.358;2024-03-17T03:03:29;7.10;;;3.63;;
85040;SDS011;75367;52.010;4.358;2024-03-17T03:05:55;6.45;;;4.28;;
85040;SDS011;75367;52.010;4.358;2024-03-17T03:08:22;6.10;;;3.60;;
85040;SDS011;75367;52.010;4.358;2024-03-17T03:10:47;7.95;;;5.03;;
85040;SDS011;75367;52.010;4.358;2024-03-17T03:13:13;5.72;;;3.78;;
85040;SDS011;75367;52.010;4.358;2024-03-17T03:15:38;5.32;;;3.92;;
85040;SDS011;75367;52.010;4.358;2024-03-17T03:18:03;5.30;;;3.75;;
85040;SDS011;75367;52.010;4.358;2024-03-17T03:20:29;7.70;;;4.43;;
85040;SDS011;75367;52.010;4.358;2024-03-17T03:22:55;5.85;;;4.18;;
85040;SDS011;75367;52.010;4.358;2024-03-17T03:25:21;6.10;;;4.85;;
85040;SDS011;75367;52.010;4.358;2024-03-17T03:27:46;5.53;;;3.88;;
85040;SDS011;75367;52.010;4.358;2024-03-17T03:30:11;5.93;;;4.47;;
85040;SDS011;75367;52.010;4.358;2024-03-17T03:32:37;5.35;;;4.35;;
85040;SDS011;75367;52.010;4.358;2024-03-17T03:35:03;8.43;;;4.70;;
85040;SDS011;75367;52.010;4.358;2024-03-17T03:37:29;8.07;;;4.47;;
85040;SDS011;75367;52.010;4.358;2024-03-17T03:39:55;6.75;;;4.45;;
85040;SDS011;75367;52.010;4.358;2024-03-17T03:42:21;6.57;;;4.47;;
85040;SDS011;75367;52.010;4.358;2024-03-17T03:44:48;6.88;;;3.97;;
85040;SDS011;75367;52.010;4.358;2024-03-17T03:47:14;5.88;;;4.35;;
85040;SDS011;75367;52.010;4.358;2024-03-17T03:49:39;6.68;;;4.03;;
85040;SDS011;75367;52.010;4.358;2024-03-17T03:52:05;6.35;;;4.22;;
85040;SDS011;75367;52.010;4.358;2024-03-17T03:54:30;4.63;;;4.00;;
85040;SDS011;75367;52.010;4.358;2024-03-17T03:56:56;6.15;;;3.67;;
85040;SDS011;75367;52.010;4.358;2024-03-17T03:59:21;6.40;;;4.20;;
85040;SDS011;75367;52.010;4.358;2024-03-17T04:01:47;6.53;;;4.45;;
85040;SDS011;75367;52.010;4.358;2024-03-17T04:04:14;6.55;;;4.25;;
85040;SDS011;75367;52.010;4.358;2024-03-17T04:06:40;6.80;;;4.32;;
85040;SDS011;75367;52.010;4.358;2024-03-17T04:09:05;7.37;;;3.73;;
85040;SDS011;75367;52.010;4.358;2024-03-17T04:11:32;7.18;;;4.10;;
85040;SDS011;75367;52.010;4.358;2024-03-17T04:13:58;7.72;;;4.65;;
85040;SDS011;75367;52.010;4.358;2024-03-17T04:16:25;8.73;;;4.93;;
85040;SDS011;75367;52.010;4.358;2024-03-17T04:18:51;7.28;;;4.60;;
85040;SDS011;75367;52.010;4.358;2024-03-17T04:21:17;5.72;;;4.15;;
85040;SDS011;75367;52.010;4.358;2024-03-17T04:23:42;6.82;;;4.32;;
85040;SDS011;75367;52.010;4.358;2024-03-17T04:26:07;5.05;;;3.80;;
85040;SDS011;75367;52.010;4.358;2024-03-17T04:28:33;6.72;;;4.70;;
85040;SDS011;75367;52.010;4.358;2024-03-17T04:31:05;8.80;;;4.15;;
85040;SDS011;75367;52.010;4.358;2024-03-17T04:33:31;7.90;;;5.07;;
85040;SDS011;75367;52.010;4.358;2024-03-17T04:35:57;6.25;;;4.60;;
85040;SDS011;75367;52.010;4.358;2024-03-17T04:38:23;8.38;;;4.63;;
85040;SDS011;75367;52.010;4.358;2024-03-17T04:40:49;8.70;;;5.32;;
85040;SDS011;75367;52.010;4.358;2024-03-17T04:43:15;7.63;;;4.30;;
85040;SDS011;75367;52.010;4.358;2024-03-17T04:45:41;9.13;;;4.88;;
85040;SDS011;75367;52.010;4.358;2024-03-17T04:48:06;9.00;;;4.70;;
85040;SDS011;75367;52.010;4.358;2024-03-17T04:50:32;6.68;;;4.95;;
85040;SDS011;75367;52.010;4.358;2024-03-17T04:52:58;7.38;;;4.78;;
85040;SDS011;75367;52.010;4.358;2024-03-17T04:55:24;6.82;;;4.75;;
85040;SDS011;75367;52.010;4.358;2024-03-17T04:57:49;6.73;;;5.20;;
85040;SDS011;75367;52.010;4.358;2024-03-17T05:00:15;8.83;;;4.73;;
85040;SDS011;75367;52.010;4.358;2024-03-17T05:02:43;8.52;;;5.82;;
85040;SDS011;75367;52.010;4.358;2024-03-17T05:05:08;9.93;;;5.47;;
85040;SDS011;75367;52.010;4.358;2024-03-17T05:07:35;7.65;;;5.32;;
85040;SDS011;75367;52.010;4.358;2024-03-17T05:10:01;7.47;;;5.43;;
85040;SDS011;75367;52.010;4.358;2024-03-17T05:12:26;8.38;;;5.32;;
85040;SDS011;75367;52.010;4.358;2024-03-17T05:14:52;11.25;;;5.82;;
85040;SDS011;75367;52.010;4.358;2024-03-17T05:17:17;7.30;;;5.05;;
85040;SDS011;75367;52.010;4.358;2024-03-17T05:19:42;7.07;;;6.05;;
85040;SDS011;75367;52.010;4.358;2024-03-17T05:22:08;8.98;;;5.88;;
85040;SDS011;75367;52.010;4.358;2024-03-17T05:24:33;10.77;;;6.20;;
85040;SDS011;75367;52.010;4.358;2024-03-17T05:26:58;7.43;;;5.80;;
85040;SDS011;75367;52.010;4.358;2024-03-17T05:29:24;8.20;;;5.83;;
85040;SDS011;75367;52.010;4.358;2024-03-17T05:31:49;6.97;;;5.25;;
85040;SDS011;75367;52.010;4.358;2024-03-17T05:34:15;9.15;;;5.63;;
85040;SDS011;75367;52.010;4.358;2024-03-17T05:36:40;8.43;;;5.10;;
85040;SDS011;75367;52.010;4.358;2024-03-17T05:39:05;9.18;;;6.10;;
85040;SDS011;75367;52.010;4.358;2024-03-17T05:41:31;7.63;;;5.60;;
85040;SDS011;75367;52.010;4.358;2024-03-17T05:43:56;8.38;;;6.30;;
85040;SDS011;75367;52.010;4.358;2024-03-17T05:46:28;8.30;;;5.38;;
85040;SDS011;75367;52.010;4.358;2024-03-17T05:48:53;8.55;;;5.80;;
85040;SDS011;75367;52.010;4.358;2024-03-17T05:51:19;7.88;;;6.13;;
85040;SDS011;75367;52.010;4.358;2024-03-17T05:53:44;7.80;;;5.97;;
85040;SDS011;75367;52.010;4.358;2024-03-17T05:56:10;8.15;;;5.68;;
85040;SDS011;75367;52.010;4.358;2024-03-17T05:58:39;11.30;;;6.63;;
85040;SDS011;75367;52.010;4.358;2024-03-17T06:01:05;10.30;;;6.28;;
85040;SDS011;75367;52.010;4.358;2024-03-17T06:03:32;8.55;;;5.05;;
85040;SDS011;75367;52.010;4.358;2024-03-17T06:06:00;7.65;;;5.63;;
85040;SDS011;75367;52.010;4.358;2024-03-17T06:08:25;8.02;;;5.90;;
85040;SDS011;75367;52.010;4.358;2024-03-17T06:10:51;9.93;;;6.10;;
85040;SDS011;75367;52.010;4.358;2024-03-17T06:13:16;11.50;;;6.18;;
85040;SDS011;75367;52.010;4.358;2024-03-17T06:15:42;9.18;;;5.90;;
85040;SDS011;75367;52.010;4.358;2024-03-17T06:18:09;8.18;;;5.32;;
85040;SDS011;75367;52.010;4.358;2024-03-17T06:20:39;8.43;;;5.28;;
85040;SDS011;75367;52.010;4.358;2024-03-17T06:23:07;8.50;;;5.28;;
85040;SDS011;75367;52.010;4.358;2024-03-17T06:25:36;10.02;;;5.63;;
85040;SDS011;75367;52.010;4.358;2024-03-17T06:28:12;8.27;;;5.72;;
85040;SDS011;75367;52.010;4.358;2024-03-17T06:30:41;7.55;;;4.78;;
85040;SDS011;75367;52.010;4.358;2024-03-17T06:33:08;6.88;;;4.97;;
85040;SDS011;75367;52.010;4.358;2024-03-17T06:35:36;9.38;;;6.13;;
85040;SDS011;75367;52.010;4.358;2024-03-17T06:38:02;6.97;;;5.43;;
85040;SDS011;75367;52.010;4.358;2024-03-17T06:40:27;6.90;;;5.15;;
85040;SDS011;75367;52.010;4.358;2024-03-17T06:42:53;7.35;;;4.95;;
85040;SDS011;75367;52.010;4.358;2024-03-17T06:45:18;8.27;;;5.45;;
85040;SDS011;75367;52.010;4.358;2024-03-17T06:47:45;9.88;;;5.95;;
85040;SDS011;75367;52.010;4.358;2024-03-17T06:50:11;9.23;;;5.53;;
85040;SDS011;75367;52.010;4.358;2024-03-17T06:52:37;6.97;;;5.38;;
85040;SDS011;75367;52.010;4.358;2024-03-17T06:55:02;7.25;;;5.18;;
85040;SDS011;75367;52.010;4.358;2024-03-17T06:57:28;8.00;;;5.68;;
85040;SDS011;75367;52.010;4.358;2024-03-17T06:59:53;8.57;;;5.68;;
85040;SDS011;75367;52.010;4.358;2024-03-17T07:02:18;8.35;;;4.75;;
85040;SDS011;75367;52.010;4.358;2024-03-17T07:04:45;6.60;;;5.22;;
85040;SDS011;75367;52.010;4.358;2024-03-17T07:07:11;9.98;;;5.50;;
85040;SDS011;75367;52.010;4.358;2024-03-17T07:09:37;9.02;;;5.57;;
85040;SDS011;75367;52.010;4.358;2024-03-17T07:12:04;7.88;;;5.43;;
85040;SDS011;75367;52.010;4.358;2024-03-17T07:14:29;7.78;;;6.10;;
85040;SDS011;75367;52.010;4.358;2024-03-17T07:16:56;7.20;;;5.53;;
85040;SDS011;75367;52.010;4.358;2024-03-17T07:19:22;6.97;;;5.97;;
85040;SDS011;75367;52.010;4.358;2024-03-17T07:21:47;7.07;;;4.47;;
85040;SDS011;75367;52.010;4.358;2024-03-17T07:24:12;7.10;;;4.78;;
85040;SDS011;75367;52.010;4.358;2024-03-17T07:26:38;7.28;;;4.13;;
85040;SDS011;75367;52.010;4.358;2024-03-17T07:29:03;5.35;;;3.53;;
85040;SDS011;75367;52.010;4.358;2024-03-17T07:31:29;7.07;;;4.75;;
85040;SDS011;75367;52.010;4.358;2024-03-17T07:33:54;9.40;;;6.00;;
85040;SDS011;75367;52.010;4.358;2024-03-17T07:36:19;8.30;;;5.68;;
85040;SDS011;75367;52.010;4.358;2024-03-17T07:38:47;7.82;;;5.22;;
85040;SDS011;75367;52.010;4.358;2024-03-17T07:41:12;7.43;;;5.35;;
85040;SDS011;75367;52.010;4.358;2024-03-17T07:43:38;7.32;;;4.95;;
85040;SDS011;75367;52.010;4.358;2024-03-17T07:46:04;7.78;;;5.18;;
85040;SDS011;75367;52.010;4.358;2024-03-17T07:48:37;6.65;;;5.18;;
85040;SDS011;75367;52.010;4.358;2024-03-17T07:51:04;7.78;;;5.78;;
85040;SDS011;75367;52.010;4.358;2024-03-17T07:53:34;10.48;;;5.70;;
85040;SDS011;75367;52.010;4.358;2024-03-17T07:56:04;6.82;;;5.07;;
85040;SDS011;75367;52.010;4.358;2024-03-17T07:58:30;7.32;;;5.05;;
85040;SDS011;75367;52.010;4.358;2024-03-17T08:00:58;10.02;;;5.40;;
85040;SDS011;75367;52.010;4.358;2024-03-17T08:03:34;6.25;;;5.05;;
85040;SDS011;75367;52.010;4.358;2024-03-17T08:06:01;7.68;;;5.30;;
85040;SDS011;75367;52.010;4.358;2024-03-17T08:08:27;9.13;;;5.63;;
85040;SDS011;75367;52.010;4.358;2024-03-17T08:10:53;7.25;;;5.35;;
85040;SDS011;75367;52.010;4.358;2024-03-17T08:13:19;6.78;;;5.43;;
85040;SDS011;75367;52.010;4.358;2024-03-17T08:15:45;6.68;;;4.78;;
85040;SDS011;75367;52.010;4.358;2024-03-17T08:18:11;6.95;;;5.35;;
85040;SDS011;75367;52.010;4.358;2024-03-17T08:20:37;6.57;;;5.10;;
85040;SDS011;75367;52.010;4.358;2024-03-17T08:23:08;8.98;;;5.85;;
85040;SDS011;75367;52.010;4.358;2024-03-17T08:25:35;10.18;;;5.60;;
85040;SDS011;75367;52.010;4.358;2024-03-17T08:28:01;6.18;;;5.07;;
85040;SDS011;75367;52.010;4.358;2024-03-17T08:30:27;8.30;;;5.45;;
85040;SDS011;75367;52.010;4.358;2024-03-17T08:32:53;8.00;;;4.88;;
85040;SDS011;75367;52.010;4.358;2024-03-17T08:35:18;9.75;;;6.32;;
85040;SDS011;75367;52.010;4.358;2024-03-17T08:37:44;7.00;;;5.40;;
85040;SDS011;75367;52.010;4.358;2024-03-17T08:40:10;7.03;;;4.95;;
85040;SDS011;75367;52.010;4.358;2024-03-17T08:42:35;9.15;;;4.82;;
85040;SDS011;75367;52.010;4.358;2024-03-17T08:45:01;6.68;;;4.85;;
85040;SDS011;75367;52.010;4.358;2024-03-17T08:47:27;9.45;;;6.40;;
85040;SDS011;75367;52.010;4.358;2024-03-17T08:49:53;8.88;;;5.90;;
85040;SDS011;75367;52.010;4.358;2024-03-17T08:52:19;6.70;;;4.82;;
85040;SDS011;75367;52.010;4.358;2024-03-17T08:54:46;6.28;;;5.03;;
85040;SDS011;75367;52.010;4.358;2024-03-17T08:57:12;8.18;;;4.60;;
85040;SDS011;75367;52.010;4.358;2024-03-17T08:59:37;7.10;;;5.00;;
85040;SDS011;75367;52.010;4.358;2024-03-17T09:02:03;6.10;;;5.32;;
85040;SDS011;75367;52.010;4.358;2024-03-17T09:04:28;7.70;;;4.97;;
85040;SDS011;75367;52.010;4.358;2024-03-17T09:06:54;8.95;;;5.07;;
85040;SDS011;75367;52.010;4.358;2024-03-17T09:09:21;6.25;;;4.10;;
85040;SDS011;75367;52.010;4.358;2024-03-17T09:11:47;9.38;;;4.95;;
85040;SDS011;75367;52.010;4.358;2024-03-17T09:14:12;7.53;;;5.50;;
85040;SDS011;75367;52.010;4.358;2024-03-17T09:16:37;5.68;;;4.70;;
85040;SDS011;75367;52.010;4.358;2024-03-17T09:19:03;7.95;;;5.15;;
85040;SDS011;75367;52.010;4.358;2024-03-17T09:21:28;8.90;;;5.13;;
85040;SDS011;75367;52.010;4.358;2024-03-17T09:23:53;8.52;;;5.07;;
85040;SDS011;75367;52.010;4.358;2024-03-17T09:26:19;8.93;;;5.22;;
85040;SDS011;75367;52.010;4.358;2024-03-17T09:28:44;6.65;;;4.75;;
85040;SDS011;75367;52.010;4.358;2024-03-17T09:31:10;8.18;;;5.20;;
85040;SDS011;75367;52.010;4.358;2024-03-17T09:33:37;7.03;;;4.47;;
85040;SDS011;75367;52.010;4.358;2024-03-17T09:36:06;7.82;;;4.65;;
85040;SDS011;75367;52.010;4.358;2024-03-17T09:38:33;8.30;;;5.35;;
85040;SDS011;75367;52.010;4.358;2024-03-17T09:40:59;7.35;;;4.57;;
85040;SDS011;75367;52.010;4.358;2024-03-17T09:43:26;6.68;;;4.63;;
85040;SDS011;75367;52.010;4.358;2024-03-17T09:45:53;7.82;;;4.53;;
85040;SDS011;75367;52.010;4.358;2024-03-17T09:48:25;7.32;;;4.75;;
85040;SDS011;75367;52.010;4.358;2024-03-17T09:50:55;11.75;;;6.78;;
85040;SDS011;75367;52.010;4.358;2024-03-17T09:53:25;8.20;;;5.38;;
85040;SDS011;75367;52.010;4.358;2024-03-17T09:55:51;7.60;;;4.78;;
85040;SDS011;75367;52.010;4.358;2024-03-17T09:58:18;6.90;;;5.47;;
85040;SDS011;75367;52.010;4.358;2024-03-17T10:00:44;6.78;;;4.53;;
85040;SDS011;75367;52.010;4.358;2024-03-17T10:03:10;6.13;;;4.00;;
85040;SDS011;75367;52.010;4.358;2024-03-17T10:05:35;9.45;;;4.35;;
85040;SDS011;75367;52.010;4.358;2024-03-17T10:08:00;6.72;;;3.75;;
85040;SDS011;75367;52.010;4.358;2024-03-17T10:10:26;5.97;;;3.75;;
85040;SDS011;75367;52.010;4.358;2024-03-17T10:12:52;6.30;;;4.35;;
85040;SDS011;75367;52.010;4.358;2024-03-17T10:15:18;7.80;;;4.55;;
85040;SDS011;75367;52.010;4.358;2024-03-17T10:17:44;6.45;;;4.43;;
85040;SDS011;75367;52.010;4.358;2024-03-17T10:20:13;6.38;;;3.72;;
85040;SDS011;75367;52.010;4.358;2024-03-17T10:25:39;6.55;;;4.03;;
85040;SDS011;75367;52.010;4.358;2024-03-17T10:28:11;5.47;;;4.03;;
85040;SDS011;75367;52.010;4.358;2024-03-17T10:30:38;6.55;;;4.57;;
85040;SDS011;75367;52.010;4.358;2024-03-17T10:33:05;6.00;;;3.42;;
85040;SDS011;75367;52.010;4.358;2024-03-17T10:35:37;5.30;;;3.33;;
85040;SDS011;75367;52.010;4.358;2024-03-17T10:38:08;4.38;;;3.45;;
85040;SDS011;75367;52.010;4.358;2024-03-17T10:40:34;5.55;;;3.42;;
85040;SDS011;75367;52.010;4.358;2024-03-17T10:43:03;6.05;;;3.47;;
85040;SDS011;75367;52.010;4.358;2024-03-17T10:45:29;6.53;;;3.80;;
85040;SDS011;75367;52.010;4.358;2024-03-17T10:48:01;7.18;;;3.22;;
85040;SDS011;75367;52.010;4.358;2024-03-17T10:50:29;5.28;;;2.67;;
85040;SDS011;75367;52.010;4.358;2024-03-17T10:52:56;9.93;;;3.22;;
85040;SDS011;75367;52.010;4.358;2024-03-17T10:55:27;6.40;;;3.17;;
85040;SDS011;75367;52.010;4.358;2024-03-17T10:57:54;6.45;;;3.83;;
85040;SDS011;75367;52.010;4.358;2024-03-17T11:00:23;6.22;;;4.13;;
85040;SDS011;75367;52.010;4.358;2024-03-17T11:02:52;6.53;;;3.83;;
85040;SDS011;75367;52.010;4.358;2024-03-17T11:05:24;7.28;;;4.05;;
85040;SDS011;75367;52.010;4.358;2024-03-17T11:07:55;8.05;;;3.92;;
85040;SDS011;75367;52.010;4.358;2024-03-17T11:10:27;8.73;;;4.00;;
85040;SDS011;75367;52.010;4.358;2024-03-17T11:12:54;5.80;;;3.80;;
85040;SDS011;75367;52.010;4.358;2024-03-17T11:21:03;7.43;;;3.58;;
85040;SDS011;75367;52.010;4.358;2024-03-17T11:23:40;6.68;;;3.75;;
85040;SDS011;75367;52.010;4.358;2024-03-17T11:26:06;6.75;;;4.35;;
85040;SDS011;75367;52.010;4.358;2024-03-17T11:33:57;7.00;;;3.13;;
85040;SDS011;75367;52.010;4.358;2024-03-17T11:44:25;5.60;;;3.30;;
85040;SDS011;75367;52.010;4.358;2024-03-17T11:49:27;5.60;;;3.28;;
85040;SDS011;75367;52.010;4.358;2024-03-17T11:51:55;6.95;;;3.78;;
85040;SDS011;75367;52.010;4.358;2024-03-17T11:54:26;7.65;;;3.85;;
85040;SDS011;75367;52.010;4.358;2024-03-17T11:56:55;5.47;;;3.85;;
85040;SDS011;75367;52.010;4.358;2024-03-17T11:59:25;6.53;;;4.57;;
85040;SDS011;75367;52.010;4.358;2024-03-17T12:01:50;7.90;;;3.72;;
85040;SDS011;75367;52.010;4.358;2024-03-17T12:04:19;6.63;;;3.33;;
85040;SDS011;75367;52.010;4.358;2024-03-17T12:06:46;5.47;;;4.45;;
85040;SDS011;75367;52.010;4.358;2024-03-17T12:09:20;7.20;;;3.47;;
85040;SDS011;75367;52.010;4.358;2024-03-17T12:11:47;6.72;;;3.50;;
85040;SDS011;75367;52.010;4.358;2024-03-17T12:14:15;5.07;;;3.47;;
85040;SDS011;75367;52.010;4.358;2024-03-17T12:16:51;6.10;;;3.83;;
85040;SDS011;75367;52.010;4.358;2024-03-17T12:19:18;8.98;;;3.33;;
85040;SDS011;75367;52.010;4.358;2024-03-17T12:22:02;7.25;;;3.22;;
85040;SDS011;75367;52.010;4.358;2024-03-17T12:24:30;7.18;;;3.83;;
85040;SDS011;75367;52.010;4.358;2024-03-17T12:26:57;7.63;;;3.65;;
85040;SDS011;75367;52.010;4.358;2024-03-17T12:31:56;6.68;;;3.63;;
85040;SDS011;75367;52.010;4.358;2024-03-17T12:34:23;5.82;;;2.90;;
85040;SDS011;75367;52.010;4.358;2024-03-17T12:36:51;8.35;;;3.30;;
85040;SDS011;75367;52.010;4.358;2024-03-17T12:39:18;5.18;;;3.38;;
85040;SDS011;75367;52.010;4.358;2024-03-17T12:41:44;6.30;;;3.38;;
85040;SDS011;75367;52.010;4.358;2024-03-17T12:44:23;7.60;;;3.72;;
85040;SDS011;75367;52.010;4.358;2024-03-17T12:46:54;6.22;;;3.53;;
85040;SDS011;75367;52.010;4.358;2024-03-17T12:49:20;7.57;;;4.13;;
85040;SDS011;75367;52.010;4.358;2024-03-17T12:51:46;5.72;;;3.05;;
85040;SDS011;75367;52.010;4.358;2024-03-17T12:54:12;6.22;;;3.33;;
85040;SDS011;75367;52.010;4.358;2024-03-17T12:56:37;6.85;;;3.28;;
85040;SDS011;75367;52.010;4.358;2024-03-17T12:59:22;8.90;;;3.72;;
85040;SDS011;75367;52.010;4.358;2024-03-17T13:02:08;7.38;;;3.20;;
85040;SDS011;75367;52.010;4.358;2024-03-17T13:04:36;3.95;;;2.58;;
85040;SDS011;75367;52.010;4.358;2024-03-17T13:07:09;8.68;;;2.90;;
85040;SDS011;75367;52.010;4.358;2024-03-17T13:09:35;5.60;;;3.10;;
85040;SDS011;75367;52.010;4.358;2024-03-17T13:12:02;6.75;;;2.83;;
85040;SDS011;75367;52.010;4.358;2024-03-17T13:14:27;6.45;;;3.40;;
85040;SDS011;75367;52.010;4.358;2024-03-17T13:16:53;6.82;;;3.88;;
85040;SDS011;75367;52.010;4.358;2024-03-17T13:19:18;6.75;;;3.10;;
85040;SDS011;75367;52.010;4.358;2024-03-17T13:21:44;6.55;;;2.95;;
85040;SDS011;75367;52.010;4.358;2024-03-17T13:24:11;7.30;;;2.72;;
85040;SDS011;75367;52.010;4.358;2024-03-17T13:26:36;7.32;;;2.95;;
85040;SDS011;75367;52.010;4.358;2024-03-17T13:29:02;4.70;;;3.10;;
85040;SDS011;75367;52.010;4.358;2024-03-17T13:31:28;7.90;;;3.33;;
85040;SDS011;75367;52.010;4.358;2024-03-17T13:33:53;8.25;;;3.55;;
85040;SDS011;75367;52.010;4.358;2024-03-17T13:36:18;5.35;;;3.38;;
85040;SDS011;75367;52.010;4.358;2024-03-17T13:38:44;6.63;;;3.63;;
85040;SDS011;75367;52.010;4.358;2024-03-17T13:41:09;7.85;;;3.30;;
85040;SDS011;75367;52.010;4.358;2024-03-17T13:43:34;6.50;;;3.25;;
85040;SDS011;75367;52.010;4.358;2024-03-17T13:46:00;7.65;;;3.25;;
85040;SDS011;75367;52.010;4.358;2024-03-17T13:48:25;5.13;;;3.15;;
85040;SDS011;75367;52.010;4.358;2024-03-17T13:50:51;6.85;;;3.10;;
85040;SDS011;75367;52.010;4.358;2024-03-17T13:53:16;6.23;;;2.60;;
85040;SDS011;75367;52.010;4.358;2024-03-17T13:55:41;6.30;;;3.50;;
85040;SDS011;75367;52.010;4.358;2024-03-17T13:58:07;4.78;;;2.80;;
85040;SDS011;75367;52.010;4.358;2024-03-17T14:00:32;7.13;;;2.85;;
85040;SDS011;75367;52.010;4.358;2024-03-17T14:03:03;4.57;;;2.55;;
85040;SDS011;75367;52.010;4.358;2024-03-17T14:05:28;5.38;;;3.28;;
85040;SDS011;75367;52.010;4.358;2024-03-17T14:07:54;11.82;;;3.08;;
85040;SDS011;75367;52.010;4.358;2024-03-17T14:10:20;8.30;;;3.10;;
85040;SDS011;75367;52.010;4.358;2024-03-17T14:12:47;4.97;;;2.42;;
85040;SDS011;75367;52.010;4.358;2024-03-17T14:15:13;8.48;;;2.65;;
85040;SDS011;75367;52.010;4.358;2024-03-17T14:17:39;5.53;;;2.53;;
85040;SDS011;75367;52.010;4.358;2024-03-17T14:20:12;5.88;;;2.70;;
85040;SDS011;75367;52.010;4.358;2024-03-17T14:22:39;6.00;;;2.78;;
85040;SDS011;75367;52.010;4.358;2024-03-17T14:25:08;6.63;;;3.30;;
85040;SDS011;75367;52.010;4.358;2024-03-17T14:27:37;5.40;;;2.53;;
85040;SDS011;75367;52.010;4.358;2024-03-17T14:30:03;5.22;;;2.83;;
85040;SDS011;75367;52.010;4.358;2024-03-17T14:32:29;7.07;;;3.05;;
85040;SDS011;75367;52.010;4.358;2024-03-17T14:34:55;5.03;;;2.80;;
85040;SDS011;75367;52.010;4.358;2024-03-17T14:37:20;5.80;;;2.60;;
85040;SDS011;75367;52.010;4.358;2024-03-17T14:39:47;6.30;;;3.10;;
85040;SDS011;75367;52.010;4.358;2024-03-17T14:42:12;6.35;;;2.55;;
85040;SDS011;75367;52.010;4.358;2024-03-17T14:44:39;6.68;;;2.53;;
85040;SDS011;75367;52.010;4.358;2024-03-17T14:47:05;4.40;;;2.85;;
85040;SDS011;75367;52.010;4.358;2024-03-17T14:49:32;6.32;;;2.35;;
85040;SDS011;75367;52.010;4.358;2024-03-17T14:51:57;5.93;;;2.97;;
85040;SDS011;75367;52.010;4.358;2024-03-17T14:54:23;7.88;;;5.25;;
85040;SDS011;75367;52.010;4.358;2024-03-17T14:56:48;6.43;;;3.55;;
85040;SDS011;75367;52.010;4.358;2024-03-17T14:59:13;6.03;;;3.00;;
85040;SDS011;75367;52.010;4.358;2024-03-17T15:01:42;6.25;;;2.67;;
85040;SDS011;75367;52.010;4.358;2024-03-17T15:04:07;6.47;;;3.10;;
85040;SDS011;75367;52.010;4.358;2024-03-17T15:06:33;5.82;;;3.17;;
85040;SDS011;75367;52.010;4.358;2024-03-17T15:08:58;5.18;;;2.80;;
85040;SDS011;75367;52.010;4.358;2024-03-17T15:11:24;5.55;;;3.00;;